sensor_id;sensor_type;location;lat;lon;timestamp;P1;durP1;ratioP1;P2;durP2;ratioP2
51451;SDS011;37521;52.020;-1.740;2022-11-20T00:01:10;8.05;;;2.75;;
51451;SDS011;37521;52.020;-1.740;2022-11-20T00:03:39;4.55;;;2.80;;
51451;SDS011;37521;52.020;-1.740;2022-11-20T00:06:09;4.28;;;2.58;;
51451;SDS011;37521;52.020;-1.740;2022-11-20T00:08:40;2.95;;;2.25;;
51451;SDS011;37521;52.020;-1.740;2022-11-20T00:11:09;5.55;;;2.80;;
51451;SDS011;37521;52.020;-1.740;2022-11-20T00:13:42;4.57;;;3.00;;
51451;SDS011;37521;52.020;-1.740;2022-11-20T00:16:13;5.53;;;2.63;;
51451;SDS011;37521;52.020;-1.740;2022-11-20T00:18:43;5.60;;;2.75;;
51451;SDS011;37521;52.020;-1.740;2022-11-20T00:21:12;2.67;;;2.08;;
51451;SDS011;37521;52.020;-1.740;2022-11-20T00:23:44;8.35;;;2.53;;
51451;SDS011;37521;52.020;-1.740;2022-11-20T00:26:13;3.08;;;1.90;;
51451;SDS011;37521;52.020;-1.740;2022-11-20T00:28:43;4.10;;;1.83;;
51451;SDS011;37521;52.020;-1.740;2022-11-20T00:31:12;2.75;;;2.55;;
51451;SDS011;37521;52.020;-1.740;2022-11-20T00:33:42;3.45;;;1.52;;
51451;SDS011;37521;52.020;-1.740;2022-11-20T00:36:12;1.73;;;1.63;;
51451;SDS011;37521;52.020;-1.740;2022-11-20T00:38:43;5.63;;;1.70;;
51451;SDS011;37521;52.020;-1.740;2022-11-20T00:41:13;2.13;;;1.50;;
51451;SDS011;37521;52.020;-1.740;2022-11-20T00:43:42;2.10;;;1.70;;
51451;SDS011;37521;52.020;-1.740;2022-11-20T00:46:12;4.03;;;1.83;;
51451;SDS011;37521;52.020;-1.740;2022-11-20T00:48:41;2.65;;;1.88;;
51451;SDS011;37521;52.020;-1.740;2022-11-20T00:51:10;2.70;;;2.15;;
51451;SDS011;37521;52.020;-1.740;2022-11-20T00:53:40;4.80;;;2.05;;
51451;SDS011;37521;52.020;-1.740;2022-11-20T00:56:11;4.82;;;2.20;;
51451;SDS011;37521;52.020;-1.740;2022-11-20T00:58:43;3.38;;;1.77;;
51451;SDS011;37521;52.020;-1.740;2022-11-20T01:01:13;3.10;;;2.13;;
51451;SDS011;37521;52.020;-1.740;2022-11-20T01:03:43;3.30;;;2.10;;
51451;SDS011;37521;52.020;-1.740;2022-11-20T01:06:13;3.75;;;2.20;;
51451;SDS011;37521;52.020;-1.740;2022-11-20T01:08:43;5.93;;;3.03;;
51451;SDS011;37521;52.020;-1.740;2022-11-20T01:11:14;7.03;;;2.45;;
51451;SDS011;37521;52.020;-1.740;2022-11-20T01:13:46;5.75;;;2.35;;
51451;SDS011;37521;52.020;-1.740;2022-11-20T01:16:16;2.08;;;1.83;;
51451;SDS011;37521;52.020;-1.740;2022-11-20T01:18:46;2.63;;;2.17;;
51451;SDS011;37521;52.020;-1.740;2022-11-20T01:21:17;4.68;;;2.13;;
51451;SDS011;37521;52.020;-1.740;2022-11-20T01:23:47;5.00;;;2.47;;
51451;SDS011;37521;52.020;-1.740;2022-11-20T01:26:18;4.00;;;2.35;;
51451;SDS011;37521;52.020;-1.740;2022-11-20T01:28:48;3.85;;;2.13;;
51451;SDS011;37521;52.020;-1.740;2022-11-20T01:31:17;3.15;;;2.03;;
51451;SDS011;37521;52.020;-1.740;2022-11-20T01:33:47;3.78;;;1.88;;
51451;SDS011;37521;52.020;-1.740;2022-11-20T01:36:18;2.38;;;1.88;;
51451;SDS011;37521;52.020;-1.740;2022-11-20T01:38:50;2.58;;;1.80;;
51451;SDS011;37521;52.020;-1.740;2022-11-20T01:41:21;2.60;;;1.65;;
51451;SDS011;37521;52.020;-1.740;2022-11-20T01:44:08;3.20;;;2.13;;
51451;SDS011;37521;52.020;-1.740;2022-11-20T01:46:39;2.60;;;1.80;;
51451;SDS011;37521;52.020;-1.740;2022-11-20T01:49:18;3.90;;;1.98;;
51451;SDS011;37521;52.020;-1.740;2022-11-20T01:51:50;3.60;;;2.03;;
51451;SDS011;37521;52.020;-1.740;2022-11-20T01:54:23;6.68;;;2.45;;
51451;SDS011;37521;52.020;-1.740;2022-11-20T01:56:55;5.88;;;2.22;;
51451;SDS011;37521;52.020;-1.740;2022-11-20T01:59:25;2.33;;;2.03;;
51451;SDS011;37521;52.020;-1.740;2022-11-20T02:01:55;2.92;;;2.13;;
51451;SDS011;37521;52.020;-1.740;2022-11-20T02:04:24;3.88;;;1.92;;
51451;SDS011;37521;52.020;-1.740;2022-11-20T02:06:53;2.38;;;1.77;;
51451;SDS011;37521;52.020;-1.740;2022-11-20T02:09:26;4.80;;;2.15;;
51451;SDS011;37521;52.020;-1.740;2022-11-20T02:11:56;1.38;;;1.08;;
51451;SDS011;37521;52.020;-1.740;2022-11-20T02:14:25;2.55;;;2.00;;
51451;SDS011;37521;52.020;-1.740;2022-11-20T02:16:54;2.25;;;2.05;;
51451;SDS011;37521;52.020;-1.740;2022-11-20T02:19:24;3.67;;;1.80;;
51451;SDS011;37521;52.020;-1.740;2022-11-20T02:21:58;3.10;;;1.80;;
51451;SDS011;37521;52.020;-1.740;2022-11-20T02:24:31;3.35;;;1.70;;
51451;SDS011;37521;52.020;-1.740;2022-11-20T02:26:59;2.38;;;1.80;;
51451;SDS011;37521;52.020;-1.740;2022-11-20T02:29:31;3.45;;;1.80;;
51451;SDS011;37521;52.020;-1.740;2022-11-20T02:32:04;1.73;;;1.52;;
51451;SDS011;37521;52.020;-1.740;2022-11-20T02:34:32;4.15;;;1.73;;
51451;SDS011;37521;52.020;-1.740;2022-11-20T02:37:00;4.22;;;1.80;;
51451;SDS011;37521;52.020;-1.740;2022-11-20T02:39:30;5.85;;;2.00;;
51451;SDS011;37521;52.020;-1.740;2022-11-20T02:42:00;5.20;;;2.22;;
51451;SDS011;37521;52.020;-1.740;2022-11-20T02:44:28;5.20;;;1.80;;
51451;SDS011;37521;52.020;-1.740;2022-11-20T02:46:57;1.67;;;1.58;;
51451;SDS011;37521;52.020;-1.740;2022-11-20T02:49:25;2.38;;;1.88;;
51451;SDS011;37521;52.020;-1.740;2022-11-20T02:51:53;1.88;;;1.67;;
51451;SDS011;37521;52.020;-1.740;2022-11-20T02:54:21;2.15;;;1.80;;
51451;SDS011;37521;52.020;-1.740;2022-11-20T02:56:51;1.50;;;1.40;;
51451;SDS011;37521;52.020;-1.740;2022-11-20T02:59:19;2.15;;;1.63;;
51451;SDS011;37521;52.020;-1.740;2022-11-20T03:01:48;4.03;;;1.92;;
51451;SDS011;37521;52.020;-1.740;2022-11-20T03:04:16;2.47;;;1.35;;
51451;SDS011;37521;52.020;-1.740;2022-11-20T03:06:45;1.77;;;1.65;;
51451;SDS011;37521;52.020;-1.740;2022-11-20T03:09:13;2.10;;;1.60;;
51451;SDS011;37521;52.020;-1.740;2022-11-20T03:11:41;2.38;;;1.48;;
51451;SDS011;37521;52.020;-1.740;2022-11-20T03:14:10;1.55;;;1.45;;
51451;SDS011;37521;52.020;-1.740;2022-11-20T03:16:38;2.45;;;1.83;;
51451;SDS011;37521;52.020;-1.740;2022-11-20T03:19:07;3.88;;;1.85;;
51451;SDS011;37521;52.020;-1.740;2022-11-20T03:21:35;5.30;;;1.80;;
51451;SDS011;37521;52.020;-1.740;2022-11-20T03:24:03;2.30;;;1.33;;
51451;SDS011;37521;52.020;-1.740;2022-11-20T03:26:31;2.75;;;1.65;;
51451;SDS011;37521;52.020;-1.740;2022-11-20T03:29:00;3.60;;;1.50;;
51451;SDS011;37521;52.020;-1.740;2022-11-20T03:31:32;2.45;;;1.95;;
51451;SDS011;37521;52.020;-1.740;2022-11-20T03:34:03;1.17;;;1.10;;
51451;SDS011;37521;52.020;-1.740;2022-11-20T03:36:31;1.70;;;1.17;;
51451;SDS011;37521;52.020;-1.740;2022-11-20T03:39:00;2.13;;;1.23;;
51451;SDS011;37521;52.020;-1.740;2022-11-20T03:41:29;1.88;;;1.45;;
51451;SDS011;37521;52.020;-1.740;2022-11-20T03:44:00;1.88;;;1.60;;
51451;SDS011;37521;52.020;-1.740;2022-11-20T03:46:29;1.17;;;1.10;;
51451;SDS011;37521;52.020;-1.740;2022-11-20T03:48:59;1.05;;;0.93;;
51451;SDS011;37521;52.020;-1.740;2022-11-20T03:51:28;1.50;;;1.40;;
51451;SDS011;37521;52.020;-1.740;2022-11-20T03:53:57;2.90;;;1.48;;
51451;SDS011;37521;52.020;-1.740;2022-11-20T03:56:27;1.88;;;1.40;;
51451;SDS011;37521;52.020;-1.740;2022-11-20T03:58:57;3.35;;;1.63;;
51451;SDS011;37521;52.020;-1.740;2022-11-20T04:01:26;1.58;;;0.93;;
51451;SDS011;37521;52.020;-1.740;2022-11-20T04:03:57;2.55;;;1.63;;
51451;SDS011;37521;52.020;-1.740;2022-11-20T04:06:26;1.67;;;1.42;;
51451;SDS011;37521;52.020;-1.740;2022-11-20T04:08:55;1.23;;;1.13;;
51451;SDS011;37521;52.020;-1.740;2022-11-20T04:11:24;1.65;;;1.08;;
51451;SDS011;37521;52.020;-1.740;2022-11-20T04:13:54;1.58;;;1.48;;
51451;SDS011;37521;52.020;-1.740;2022-11-20T04:16:24;2.03;;;1.73;;
51451;SDS011;37521;52.020;-1.740;2022-11-20T04:18:53;1.33;;;1.23;;
51451;SDS011;37521;52.020;-1.740;2022-11-20T04:21:24;1.88;;;1.20;;
51451;SDS011;37521;52.020;-1.740;2022-11-20T04:23:54;2.47;;;1.83;;
51451;SDS011;37521;52.020;-1.740;2022-11-20T04:26:23;2.90;;;1.65;;
51451;SDS011;37521;52.020;-1.740;2022-11-20T04:28:54;2.55;;;1.88;;
51451;SDS011;37521;52.020;-1.740;2022-11-20T04:31:23;3.83;;;1.95;;
51451;SDS011;37521;52.020;-1.740;2022-11-20T04:33:53;3.10;;;2.15;;
51451;SDS011;37521;52.020;-1.740;2022-11-20T04:36:22;1.77;;;1.45;;
51451;SDS011;37521;52.020;-1.740;2022-11-20T04:38:53;2.20;;;1.90;;
51451;SDS011;37521;52.020;-1.740;2022-11-20T04:41:23;2.55;;;1.65;;
51451;SDS011;37521;52.020;-1.740;2022-11-20T04:43:53;1.83;;;1.67;;
51451;SDS011;37521;52.020;-1.740;2022-11-20T04:46:26;2.60;;;2.30;;
51451;SDS011;37521;52.020;-1.740;2022-11-20T04:48:55;1.75;;;1.55;;
51451;SDS011;37521;52.020;-1.740;2022-11-20T04:51:25;2.30;;;1.90;;
51451;SDS011;37521;52.020;-1.740;2022-11-20T04:53:54;3.13;;;1.75;;
51451;SDS011;37521;52.020;-1.740;2022-11-20T04:56:22;1.85;;;1.20;;
51451;SDS011;37521;52.020;-1.740;2022-11-20T04:58:51;1.30;;;1.08;;
51451;SDS011;37521;52.020;-1.740;2022-11-20T05:01:19;3.35;;;1.35;;
51451;SDS011;37521;52.020;-1.740;2022-11-20T05:03:49;1.73;;;1.38;;
51451;SDS011;37521;52.020;-1.740;2022-11-20T05:06:18;1.05;;;0.90;;
51451;SDS011;37521;52.020;-1.740;2022-11-20T05:08:49;2.42;;;1.15;;
51451;SDS011;37521;52.020;-1.740;2022-11-20T05:11:18;1.70;;;1.13;;
51451;SDS011;37521;52.020;-1.740;2022-11-20T05:13:48;3.03;;;1.35;;
51451;SDS011;37521;52.020;-1.740;2022-11-20T05:16:18;1.45;;;1.17;;
51451;SDS011;37521;52.020;-1.740;2022-11-20T05:18:47;1.60;;;1.10;;
51451;SDS011;37521;52.020;-1.740;2022-11-20T05:21:16;1.00;;;0.98;;
51451;SDS011;37521;52.020;-1.740;2022-11-20T05:23:45;1.98;;;1.10;;
51451;SDS011;37521;52.020;-1.740;2022-11-20T05:26:15;1.08;;;0.77;;
51451;SDS011;37521;52.020;-1.740;2022-11-20T05:28:45;1.45;;;1.35;;
51451;SDS011;37521;52.020;-1.740;2022-11-20T05:31:14;1.02;;;0.80;;
51451;SDS011;37521;52.020;-1.740;2022-11-20T05:33:52;4.57;;;1.13;;
51451;SDS011;37521;52.020;-1.740;2022-11-20T05:36:20;1.17;;;1.08;;
51451;SDS011;37521;52.020;-1.740;2022-11-20T05:38:48;1.10;;;0.90;;
51451;SDS011;37521;52.020;-1.740;2022-11-20T05:41:20;0.90;;;0.60;;
51451;SDS011;37521;52.020;-1.740;2022-11-20T05:43:48;0.70;;;0.60;;
51451;SDS011;37521;52.020;-1.740;2022-11-20T05:46:18;0.65;;;0.65;;
51451;SDS011;37521;52.020;-1.740;2022-11-20T05:48:54;0.88;;;0.63;;
51451;SDS011;37521;52.020;-1.740;2022-11-20T05:51:23;1.15;;;0.50;;
51451;SDS011;37521;52.020;-1.740;2022-11-20T05:53:51;0.52;;;0.40;;
51451;SDS011;37521;52.020;-1.740;2022-11-20T05:56:21;0.95;;;0.50;;
51451;SDS011;37521;52.020;-1.740;2022-11-20T05:58:50;0.63;;;0.63;;
51451;SDS011;37521;52.020;-1.740;2022-11-20T06:01:19;2.03;;;0.38;;
51451;SDS011;37521;52.020;-1.740;2022-11-20T06:03:48;0.57;;;0.40;;
51451;SDS011;37521;52.020;-1.740;2022-11-20T06:06:18;2.10;;;0.50;;
51451;SDS011;37521;52.020;-1.740;2022-11-20T06:08:47;0.40;;;0.40;;
51451;SDS011;37521;52.020;-1.740;2022-11-20T06:11:16;0.85;;;0.70;;
51451;SDS011;37521;52.020;-1.740;2022-11-20T06:13:46;0.30;;;0.30;;
51451;SDS011;37521;52.020;-1.740;2022-11-20T06:16:17;0.90;;;0.43;;
51451;SDS011;37521;52.020;-1.740;2022-11-20T06:18:48;2.30;;;0.50;;
51451;SDS011;37521;52.020;-1.740;2022-11-20T06:21:17;0.82;;;0.32;;
51451;SDS011;37521;52.020;-1.740;2022-11-20T06:23:48;1.80;;;0.40;;
51451;SDS011;37521;52.020;-1.740;2022-11-20T06:26:18;1.20;;;0.35;;
51451;SDS011;37521;52.020;-1.740;2022-11-20T06:28:48;0.40;;;0.40;;
51451;SDS011;37521;52.020;-1.740;2022-11-20T06:31:18;0.85;;;0.80;;
51451;SDS011;37521;52.020;-1.740;2022-11-20T06:33:47;1.13;;;1.00;;
51451;SDS011;37521;52.020;-1.740;2022-11-20T06:36:17;0.93;;;0.40;;
51451;SDS011;37521;52.020;-1.740;2022-11-20T06:38:46;3.53;;;0.60;;
51451;SDS011;37521;52.020;-1.740;2022-11-20T06:41:15;1.00;;;0.40;;
51451;SDS011;37521;52.020;-1.740;2022-11-20T06:43:44;0.68;;;0.68;;
51451;SDS011;37521;52.020;-1.740;2022-11-20T06:46:15;3.67;;;0.73;;
51451;SDS011;37521;52.020;-1.740;2022-11-20T06:48:45;1.15;;;1.05;;
51451;SDS011;37521;52.020;-1.740;2022-11-20T06:51:13;0.47;;;0.47;;
51451;SDS011;37521;52.020;-1.740;2022-11-20T06:53:42;0.75;;;0.50;;
51451;SDS011;37521;52.020;-1.740;2022-11-20T06:56:10;0.43;;;0.43;;
51451;SDS011;37521;52.020;-1.740;2022-11-20T06:58:39;1.98;;;0.75;;
51451;SDS011;37521;52.020;-1.740;2022-11-20T07:01:08;2.05;;;0.70;;
51451;SDS011;37521;52.020;-1.740;2022-11-20T07:03:40;0.90;;;0.55;;
51451;SDS011;37521;52.020;-1.740;2022-11-20T07:06:09;1.50;;;0.55;;
51451;SDS011;37521;52.020;-1.740;2022-11-20T07:08:37;2.53;;;0.45;;
51451;SDS011;37521;52.020;-1.740;2022-11-20T07:11:06;0.93;;;0.52;;
51451;SDS011;37521;52.020;-1.740;2022-11-20T07:13:35;2.58;;;0.50;;
51451;SDS011;37521;52.020;-1.740;2022-11-20T07:16:04;0.95;;;0.43;;
51451;SDS011;37521;52.020;-1.740;2022-11-20T07:18:35;1.00;;;0.63;;
51451;SDS011;37521;52.020;-1.740;2022-11-20T07:21:05;0.47;;;0.25;;
51451;SDS011;37521;52.020;-1.740;2022-11-20T07:23:35;0.57;;;0.30;;
51451;SDS011;37521;52.020;-1.740;2022-11-20T07:26:04;3.10;;;0.75;;
51451;SDS011;37521;52.020;-1.740;2022-11-20T07:28:33;1.73;;;0.47;;
51451;SDS011;37521;52.020;-1.740;2022-11-20T07:31:02;0.60;;;0.38;;
51451;SDS011;37521;52.020;-1.740;2022-11-20T07:33:43;6.10;;;0.80;;
51451;SDS011;37521;52.020;-1.740;2022-11-20T07:36:12;2.40;;;0.80;;
51451;SDS011;37521;52.020;-1.740;2022-11-20T07:38:40;1.33;;;0.70;;
51451;SDS011;37521;52.020;-1.740;2022-11-20T07:41:08;1.38;;;0.47;;
51451;SDS011;37521;52.020;-1.740;2022-11-20T07:43:37;7.55;;;1.05;;
51451;SDS011;37521;52.020;-1.740;2022-11-20T07:46:07;0.82;;;0.57;;
51451;SDS011;37521;52.020;-1.740;2022-11-20T07:48:35;3.85;;;1.15;;
51451;SDS011;37521;52.020;-1.740;2022-11-20T07:51:03;2.10;;;0.63;;
51451;SDS011;37521;52.020;-1.740;2022-11-20T07:53:33;1.90;;;0.52;;
51451;SDS011;37521;52.020;-1.740;2022-11-20T07:56:01;2.22;;;0.60;;
51451;SDS011;37521;52.020;-1.740;2022-11-20T07:58:30;9.90;;;1.63;;
51451;SDS011;37521;52.020;-1.740;2022-11-20T08:01:02;0.68;;;0.38;;
51451;SDS011;37521;52.020;-1.740;2022-11-20T08:03:31;0.47;;;0.47;;
51451;SDS011;37521;52.020;-1.740;2022-11-20T08:06:00;1.52;;;0.75;;
51451;SDS011;37521;52.020;-1.740;2022-11-20T08:08:28;3.17;;;0.80;;
51451;SDS011;37521;52.020;-1.740;2022-11-20T08:11:01;1.63;;;0.90;;
51451;SDS011;37521;52.020;-1.740;2022-11-20T08:13:43;2.63;;;1.00;;
51451;SDS011;37521;52.020;-1.740;2022-11-20T08:16:30;3.75;;;0.88;;
51451;SDS011;37521;52.020;-1.740;2022-11-20T08:18:58;4.32;;;1.35;;
51451;SDS011;37521;52.020;-1.740;2022-11-20T08:21:26;3.17;;;0.88;;
51451;SDS011;37521;52.020;-1.740;2022-11-20T08:23:59;2.65;;;0.55;;
51451;SDS011;37521;52.020;-1.740;2022-11-20T08:26:28;1.98;;;0.65;;
51451;SDS011;37521;52.020;-1.740;2022-11-20T08:28:57;2.65;;;0.80;;
51451;SDS011;37521;52.020;-1.740;2022-11-20T08:31:26;3.05;;;1.05;;
51451;SDS011;37521;52.020;-1.740;2022-11-20T08:33:55;2.65;;;0.93;;
51451;SDS011;37521;52.020;-1.740;2022-11-20T08:36:24;7.65;;;0.75;;
51451;SDS011;37521;52.020;-1.740;2022-11-20T08:38:53;0.95;;;0.80;;
51451;SDS011;37521;52.020;-1.740;2022-11-20T08:41:23;5.22;;;0.82;;
51451;SDS011;37521;52.020;-1.740;2022-11-20T08:43:54;2.83;;;0.90;;
51451;SDS011;37521;52.020;-1.740;2022-11-20T08:46:24;4.63;;;1.13;;
51451;SDS011;37521;52.020;-1.740;2022-11-20T08:48:54;4.03;;;1.30;;
51451;SDS011;37521;52.020;-1.740;2022-11-20T08:51:22;2.88;;;0.52;;
51451;SDS011;37521;52.020;-1.740;2022-11-20T08:53:50;3.03;;;0.95;;
51451;SDS011;37521;52.020;-1.740;2022-11-20T08:56:18;3.05;;;0.85;;
51451;SDS011;37521;52.020;-1.740;2022-11-20T08:58:47;7.85;;;0.85;;
51451;SDS011;37521;52.020;-1.740;2022-11-20T09:01:36;1.63;;;0.50;;
51451;SDS011;37521;52.020;-1.740;2022-11-20T09:04:05;5.22;;;0.85;;
51451;SDS011;37521;52.020;-1.740;2022-11-20T09:06:33;4.75;;;0.90;;
51451;SDS011;37521;52.020;-1.740;2022-11-20T09:09:02;1.77;;;1.33;;
51451;SDS011;37521;52.020;-1.740;2022-11-20T09:11:32;7.15;;;1.33;;
51451;SDS011;37521;52.020;-1.740;2022-11-20T09:14:04;6.75;;;1.30;;
51451;SDS011;37521;52.020;-1.740;2022-11-20T09:16:32;3.67;;;0.60;;
51451;SDS011;37521;52.020;-1.740;2022-11-20T09:19:02;2.60;;;1.10;;
51451;SDS011;37521;52.020;-1.740;2022-11-20T09:21:50;4.95;;;0.77;;
51451;SDS011;37521;52.020;-1.740;2022-11-20T09:24:38;4.80;;;0.60;;
51451;SDS011;37521;52.020;-1.740;2022-11-20T09:27:06;2.05;;;0.50;;
51451;SDS011;37521;52.020;-1.740;2022-11-20T09:29:35;3.88;;;1.20;;
51451;SDS011;37521;52.020;-1.740;2022-11-20T09:32:03;8.48;;;1.23;;
51451;SDS011;37521;52.020;-1.740;2022-11-20T09:34:33;6.10;;;0.73;;
51451;SDS011;37521;52.020;-1.740;2022-11-20T09:37:02;2.40;;;0.80;;
51451;SDS011;37521;52.020;-1.740;2022-11-20T09:39:33;5.60;;;1.50;;
51451;SDS011;37521;52.020;-1.740;2022-11-20T09:42:14;3.72;;;1.83;;
51451;SDS011;37521;52.020;-1.740;2022-11-20T09:45:01;3.60;;;1.00;;
51451;SDS011;37521;52.020;-1.740;2022-11-20T09:47:43;11.85;;;2.28;;
51451;SDS011;37521;52.020;-1.740;2022-11-20T09:50:30;2.90;;;1.33;;
51451;SDS011;37521;52.020;-1.740;2022-11-20T09:53:06;4.80;;;0.88;;
51451;SDS011;37521;52.020;-1.740;2022-11-20T09:55:46;4.22;;;1.00;;
51451;SDS011;37521;52.020;-1.740;2022-11-20T09:58:19;1.33;;;0.65;;
51451;SDS011;37521;52.020;-1.740;2022-11-20T10:00:56;5.47;;;1.48;;
51451;SDS011;37521;52.020;-1.740;2022-11-20T10:03:35;4.03;;;1.30;;
51451;SDS011;37521;52.020;-1.740;2022-11-20T10:06:12;2.83;;;1.23;;
51451;SDS011;37521;52.020;-1.740;2022-11-20T10:08:45;3.13;;;0.73;;
51451;SDS011;37521;52.020;-1.740;2022-11-20T10:11:20;5.18;;;0.90;;
51451;SDS011;37521;52.020;-1.740;2022-11-20T10:13:59;3.80;;;0.85;;
51451;SDS011;37521;52.020;-1.740;2022-11-20T10:16:36;9.88;;;0.95;;
51451;SDS011;37521;52.020;-1.740;2022-11-20T10:19:15;5.53;;;1.38;;
51451;SDS011;37521;52.020;-1.740;2022-11-20T10:21:59;3.83;;;1.17;;
51451;SDS011;37521;52.020;-1.740;2022-11-20T10:24:40;5.35;;;0.93;;
51451;SDS011;37521;52.020;-1.740;2022-11-20T10:27:18;5.88;;;0.98;;
51451;SDS011;37521;52.020;-1.740;2022-11-20T10:30:00;3.50;;;0.73;;
51451;SDS011;37521;52.020;-1.740;2022-11-20T10:32:33;4.38;;;0.75;;
51451;SDS011;37521;52.020;-1.740;2022-11-20T10:35:05;4.80;;;1.33;;
51451;SDS011;37521;52.020;-1.740;2022-11-20T10:37:43;6.97;;;1.27;;
51451;SDS011;37521;52.020;-1.740;2022-11-20T10:40:18;4.22;;;0.98;;
51451;SDS011;37521;52.020;-1.740;2022-11-20T10:42:52;5.28;;;1.05;;
51451;SDS011;37521;52.020;-1.740;2022-11-20T10:48:16;3.05;;;1.10;;
51451;SDS011;37521;52.020;-1.740;2022-11-20T10:50:54;1.92;;;0.75;;
51451;SDS011;37521;52.020;-1.740;2022-11-20T10:53:34;6.35;;;1.25;;
51451;SDS011;37521;52.020;-1.740;2022-11-20T10:56:15;5.45;;;1.02;;
51451;SDS011;37521;52.020;-1.740;2022-11-20T10:58:51;4.18;;;1.48;;
51451;SDS011;37521;52.020;-1.740;2022-11-20T11:01:28;8.20;;;1.45;;
51451;SDS011;37521;52.020;-1.740;2022-11-20T11:03:57;6.57;;;1.48;;
51451;SDS011;37521;52.020;-1.740;2022-11-20T11:06:28;5.22;;;0.88;;
51451;SDS011;37521;52.020;-1.740;2022-11-20T11:09:04;2.13;;;1.17;;
51451;SDS011;37521;52.020;-1.740;2022-11-20T11:11:39;3.33;;;1.02;;
51451;SDS011;37521;52.020;-1.740;2022-11-20T11:14:08;4.05;;;0.75;;
51451;SDS011;37521;52.020;-1.740;2022-11-20T11:16:48;4.78;;;1.08;;
51451;SDS011;37521;52.020;-1.740;2022-11-20T11:19:18;2.35;;;1.20;;
51451;SDS011;37521;52.020;-1.740;2022-11-20T11:21:47;0.70;;;0.47;;
51451;SDS011;37521;52.020;-1.740;2022-11-20T11:24:23;2.88;;;0.65;;
51451;SDS011;37521;52.020;-1.740;2022-11-20T11:27:11;3.08;;;0.98;;
51451;SDS011;37521;52.020;-1.740;2022-11-20T11:29:44;3.13;;;0.88;;
51451;SDS011;37521;52.020;-1.740;2022-11-20T11:32:14;2.22;;;0.75;;
51451;SDS011;37521;52.020;-1.740;2022-11-20T11:34:43;2.55;;;0.57;;
51451;SDS011;37521;52.020;-1.740;2022-11-20T11:37:13;3.35;;;0.90;;
51451;SDS011;37521;52.020;-1.740;2022-11-20T11:39:46;8.80;;;1.33;;
51451;SDS011;37521;52.020;-1.740;2022-11-20T11:42:35;7.22;;;0.80;;
51451;SDS011;37521;52.020;-1.740;2022-11-20T11:45:11;4.70;;;0.98;;
51451;SDS011;37521;52.020;-1.740;2022-11-20T11:47:43;2.95;;;0.85;;
51451;SDS011;37521;52.020;-1.740;2022-11-20T11:50:15;2.95;;;0.95;;
51451;SDS011;37521;52.020;-1.740;2022-11-20T11:52:46;3.55;;;1.13;;
51451;SDS011;37521;52.020;-1.740;2022-11-20T11:55:26;3.53;;;1.23;;
51451;SDS011;37521;52.020;-1.740;2022-11-20T11:58:06;4.75;;;1.52;;
51451;SDS011;37521;52.020;-1.740;2022-11-20T12:00:45;1.35;;;0.70;;
51451;SDS011;37521;52.020;-1.740;2022-11-20T12:03:20;4.15;;;0.65;;
51451;SDS011;37521;52.020;-1.740;2022-11-20T12:05:51;3.20;;;1.52;;
51451;SDS011;37521;52.020;-1.740;2022-11-20T12:08:26;3.67;;;1.10;;
51451;SDS011;37521;52.020;-1.740;2022-11-20T12:13:34;2.17;;;0.80;;
51451;SDS011;37521;52.020;-1.740;2022-11-20T12:16:10;2.22;;;0.57;;
51451;SDS011;37521;52.020;-1.740;2022-11-20T12:18:41;4.05;;;0.93;;
51451;SDS011;37521;52.020;-1.740;2022-11-20T12:21:14;2.35;;;1.08;;
51451;SDS011;37521;52.020;-1.740;2022-11-20T12:23:51;4.03;;;1.55;;
51451;SDS011;37521;52.020;-1.740;2022-11-20T12:26:37;3.67;;;1.15;;
51451;SDS011;37521;52.020;-1.740;2022-11-20T12:29:18;3.22;;;1.20;;
51451;SDS011;37521;52.020;-1.740;2022-11-20T12:32:02;1.75;;;0.88;;
51451;SDS011;37521;52.020;-1.740;2022-11-20T12:34:53;1.88;;;0.70;;
51451;SDS011;37521;52.020;-1.740;2022-11-20T12:37:37;4.45;;;0.63;;
51451;SDS011;37521;52.020;-1.740;2022-11-20T12:40:17;7.38;;;1.38;;
51451;SDS011;37521;52.020;-1.740;2022-11-20T12:43:00;4.85;;;2.28;;
51451;SDS011;37521;52.020;-1.740;2022-11-20T12:46:01;3.03;;;0.82;;
51451;SDS011;37521;52.020;-1.740;2022-11-20T12:48:44;5.20;;;1.30;;
51451;SDS011;37521;52.020;-1.740;2022-11-20T12:51:27;2.95;;;1.15;;
51451;SDS011;37521;52.020;-1.740;2022-11-20T12:54:23;5.10;;;1.02;;
51451;SDS011;37521;52.020;-1.740;2022-11-20T12:57:05;0.90;;;0.77;;
51451;SDS011;37521;52.020;-1.740;2022-11-20T12:59:50;1.88;;;0.70;;
51451;SDS011;37521;52.020;-1.740;2022-11-20T13:02:30;1.58;;;1.13;;
51451;SDS011;37521;52.020;-1.740;2022-11-20T13:05:13;5.28;;;0.90;;
51451;SDS011;37521;52.020;-1.740;2022-11-20T13:07:47;4.07;;;1.35;;
51451;SDS011;37521;52.020;-1.740;2022-11-20T13:10:22;6.05;;;1.20;;
51451;SDS011;37521;52.020;-1.740;2022-11-20T13:12:56;5.68;;;1.25;;
51451;SDS011;37521;52.020;-1.740;2022-11-20T13:15:35;5.18;;;0.82;;
51451;SDS011;37521;52.020;-1.740;2022-11-20T13:18:12;1.27;;;0.65;;
51451;SDS011;37521;52.020;-1.740;2022-11-20T13:20:42;2.95;;;1.10;;
51451;SDS011;37521;52.020;-1.740;2022-11-20T13:23:22;3.35;;;0.90;;
51451;SDS011;37521;52.020;-1.740;2022-11-20T13:26:01;3.05;;;1.15;;
51451;SDS011;37521;52.020;-1.740;2022-11-20T13:28:31;5.18;;;1.00;;
51451;SDS011;37521;52.020;-1.740;2022-11-20T13:31:01;4.22;;;0.77;;
51451;SDS011;37521;52.020;-1.740;2022-11-20T13:33:30;4.13;;;0.50;;
51451;SDS011;37521;52.020;-1.740;2022-11-20T13:36:00;1.58;;;0.73;;
51451;SDS011;37521;52.020;-1.740;2022-11-20T13:38:40;3.17;;;0.95;;
51451;SDS011;37521;52.020;-1.740;2022-11-20T13:41:11;2.35;;;0.77;;
51451;SDS011;37521;52.020;-1.740;2022-11-20T13:43:58;6.50;;;1.30;;
51451;SDS011;37521;52.020;-1.740;2022-11-20T13:46:37;3.17;;;1.05;;
51451;SDS011;37521;52.020;-1.740;2022-11-20T13:49:08;2.95;;;0.80;;
51451;SDS011;37521;52.020;-1.740;2022-11-20T13:51:40;4.03;;;0.75;;
51451;SDS011;37521;52.020;-1.740;2022-11-20T13:57:28;4.43;;;0.75;;
51451;SDS011;37521;52.020;-1.740;2022-11-20T14:00:09;1.00;;;0.38;;
51451;SDS011;37521;52.020;-1.740;2022-11-20T14:02:41;3.28;;;0.52;;
51451;SDS011;37521;52.020;-1.740;2022-11-20T14:05:15;1.80;;;0.70;;
51451;SDS011;37521;52.020;-1.740;2022-11-20T14:07:49;3.25;;;0.98;;
51451;SDS011;37521;52.020;-1.740;2022-11-20T14:10:19;1.13;;;0.52;;
51451;SDS011;37521;52.020;-1.740;2022-11-20T14:12:56;3.28;;;0.73;;
51451;SDS011;37521;52.020;-1.740;2022-11-20T14:15:26;0.55;;;0.30;;
51451;SDS011;37521;52.020;-1.740;2022-11-20T14:17:59;1.13;;;0.70;;
51451;SDS011;37521;52.020;-1.740;2022-11-20T14:20:28;2.78;;;0.80;;
51451;SDS011;37521;52.020;-1.740;2022-11-20T14:22:59;0.75;;;0.47;;
51451;SDS011;37521;52.020;-1.740;2022-11-20T14:25:27;1.23;;;0.43;;
51451;SDS011;37521;52.020;-1.740;2022-11-20T14:27:58;0.85;;;0.30;;
51451;SDS011;37521;52.020;-1.740;2022-11-20T14:30:28;0.95;;;0.22;;
51451;SDS011;37521;52.020;-1.740;2022-11-20T14:33:06;0.43;;;0.43;;
51451;SDS011;37521;52.020;-1.740;2022-11-20T14:35:44;1.08;;;0.35;;
51451;SDS011;37521;52.020;-1.740;2022-11-20T14:38:13;0.47;;;0.47;;
51451;SDS011;37521;52.020;-1.740;2022-11-20T14:40:44;1.48;;;0.55;;
51451;SDS011;37521;52.020;-1.740;2022-11-20T14:43:16;0.13;;;0.10;;
51451;SDS011;37521;52.020;-1.740;2022-11-20T14:45:48;0.50;;;0.30;;
51451;SDS011;37521;52.020;-1.740;2022-11-20T14:48:29;0.20;;;0.20;;
51451;SDS011;37521;52.020;-1.740;2022-11-20T14:51:01;2.70;;;0.30;;
51451;SDS011;37521;52.020;-1.740;2022-11-20T14:53:29;0.20;;;0.20;;
51451;SDS011;37521;52.020;-1.740;2022-11-20T14:55:58;1.20;;;0.20;;
51451;SDS011;37521;52.020;-1.740;2022-11-20T14:58:28;0.50;;;0.30;;
51451;SDS011;37521;52.020;-1.740;2022-11-20T15:00:59;0.52;;;0.30;;
51451;SDS011;37521;52.020;-1.740;2022-11-20T15:03:32;0.17;;;0.05;;
51451;SDS011;37521;52.020;-1.740;2022-11-20T15:06:01;0.55;;;0.38;;
51451;SDS011;37521;52.020;-1.740;2022-11-20T15:08:29;0.10;;;0.10;;
51451;SDS011;37521;52.020;-1.740;2022-11-20T15:10:58;0.10;;;0.10;;